sensor_id;sensor_type;location;lat;lon;timestamp;P1;durP1;ratioP1;P2;durP2;ratioP2
36573;SDS011;22578;42.668;23.232;2023-08-06T00:02:31;1.23;;;1.13;;
36573;SDS011;22578;42.668;23.232;2023-08-06T00:05:51;1.85;;;1.42;;
36573;SDS011;22578;42.668;23.232;2023-08-06T00:09:12;2.58;;;1.30;;
36573;SDS011;22578;42.668;23.232;2023-08-06T00:12:33;2.28;;;1.92;;
36573;SDS011;22578;42.668;23.232;2023-08-06T00:15:53;0.93;;;0.93;;
36573;SDS011;22578;42.668;23.232;2023-08-06T00:19:14;0.90;;;0.90;;
36573;SDS011;22578;42.668;23.232;2023-08-06T00:22:35;1.20;;;1.13;;
36573;SDS011;22578;42.668;23.232;2023-08-06T00:25:56;1.80;;;1.58;;
36573;SDS011;22578;42.668;23.232;2023-08-06T00:29:16;0.90;;;0.90;;
36573;SDS011;22578;42.668;23.232;2023-08-06T00:32:37;3.83;;;1.00;;
36573;SDS011;22578;42.668;23.232;2023-08-06T00:35:57;1.05;;;1.05;;
36573;SDS011;22578;42.668;23.232;2023-08-06T00:39:18;1.10;;;1.10;;
36573;SDS011;22578;42.668;23.232;2023-08-06T00:42:38;1.50;;;1.40;;
36573;SDS011;22578;42.668;23.232;2023-08-06T00:45:59;1.05;;;1.05;;
36573;SDS011;22578;42.668;23.232;2023-08-06T00:49:19;1.05;;;1.05;;
36573;SDS011;22578;42.668;23.232;2023-08-06T00:52:40;1.55;;;1.45;;
36573;SDS011;22578;42.668;23.232;2023-08-06T00:56:01;1.00;;;1.00;;
36573;SDS011;22578;42.668;23.232;2023-08-06T00:59:22;0.93;;;0.93;;
36573;SDS011;22578;42.668;23.232;2023-08-06T01:02:42;2.55;;;1.73;;
36573;SDS011;22578;42.668;23.232;2023-08-06T01:06:03;3.75;;;1.50;;
36573;SDS011;22578;42.668;23.232;2023-08-06T01:12:52;2.50;;;1.43;;
36573;SDS011;22578;42.668;23.232;2023-08-06T01:16:17;1.30;;;1.20;;
36573;SDS011;22578;42.668;23.232;2023-08-06T01:19:38;1.05;;;1.05;;
36573;SDS011;22578;42.668;23.232;2023-08-06T01:22:58;1.33;;;1.23;;
36573;SDS011;22578;42.668;23.232;2023-08-06T01:26:33;0.70;;;0.70;;
36573;SDS011;22578;42.668;23.232;2023-08-06T01:30:06;3.60;;;1.27;;
36573;SDS011;22578;42.668;23.232;2023-08-06T01:33:30;1.35;;;1.27;;
36573;SDS011;22578;42.668;23.232;2023-08-06T01:36:52;1.02;;;0.98;;
36573;SDS011;22578;42.668;23.232;2023-08-06T01:40:13;0.90;;;0.90;;
36573;SDS011;22578;42.668;23.232;2023-08-06T01:43:33;1.45;;;1.33;;
36573;SDS011;22578;42.668;23.232;2023-08-06T01:46:54;1.23;;;1.13;;
36573;SDS011;22578;42.668;23.232;2023-08-06T01:50:14;1.25;;;1.15;;
36573;SDS011;22578;42.668;23.232;2023-08-06T01:53:35;1.00;;;1.00;;
36573;SDS011;22578;42.668;23.232;2023-08-06T01:56:55;1.45;;;1.35;;
36573;SDS011;22578;42.668;23.232;2023-08-06T02:00:15;1.23;;;1.17;;
36573;SDS011;22578;42.668;23.232;2023-08-06T02:03:36;1.10;;;1.10;;
36573;SDS011;22578;42.668;23.232;2023-08-06T02:06:56;1.00;;;1.00;;
36573;SDS011;22578;42.668;23.232;2023-08-06T02:10:17;1.27;;;1.17;;
36573;SDS011;22578;42.668;23.232;2023-08-06T02:13:37;0.88;;;0.88;;
36573;SDS011;22578;42.668;23.232;2023-08-06T02:16:58;1.17;;;1.10;;
36573;SDS011;22578;42.668;23.232;2023-08-06T02:20:18;1.02;;;0.93;;
36573;SDS011;22578;42.668;23.232;2023-08-06T02:23:38;2.05;;;1.48;;
36573;SDS011;22578;42.668;23.232;2023-08-06T02:26:59;0.93;;;0.93;;
36573;SDS011;22578;42.668;23.232;2023-08-06T02:30:19;1.27;;;1.23;;
36573;SDS011;22578;42.668;23.232;2023-08-06T02:33:40;1.20;;;1.10;;
36573;SDS011;22578;42.668;23.232;2023-08-06T02:37:00;1.20;;;1.10;;
36573;SDS011;22578;42.668;23.232;2023-08-06T02:40:20;1.15;;;1.08;;
36573;SDS011;22578;42.668;23.232;2023-08-06T02:43:41;1.10;;;1.10;;
36573;SDS011;22578;42.668;23.232;2023-08-06T02:47:01;1.75;;;1.58;;
36573;SDS011;22578;42.668;23.232;2023-08-06T02:50:22;1.02;;;1.02;;
36573;SDS011;22578;42.668;23.232;2023-08-06T02:53:42;1.33;;;1.23;;
36573;SDS011;22578;42.668;23.232;2023-08-06T02:57:03;1.65;;;1.33;;
36573;SDS011;22578;42.668;23.232;2023-08-06T03:00:23;0.90;;;0.90;;
36573;SDS011;22578;42.668;23.232;2023-08-06T03:03:44;1.40;;;1.30;;
36573;SDS011;22578;42.668;23.232;2023-08-06T03:07:04;1.05;;;1.02;;
36573;SDS011;22578;42.668;23.232;2023-08-06T03:10:25;1.10;;;1.00;;
36573;SDS011;22578;42.668;23.232;2023-08-06T03:13:45;1.10;;;1.10;;
36573;SDS011;22578;42.668;23.232;2023-08-06T03:17:07;1.00;;;1.00;;
36573;SDS011;22578;42.668;23.232;2023-08-06T03:20:27;1.40;;;1.30;;
36573;SDS011;22578;42.668;23.232;2023-08-06T03:23:48;0.98;;;0.98;;
36573;SDS011;22578;42.668;23.232;2023-08-06T03:27:11;1.13;;;1.02;;
36573;SDS011;22578;42.668;23.232;2023-08-06T03:30:31;1.20;;;1.20;;
36573;SDS011;22578;42.668;23.232;2023-08-06T03:33:51;0.93;;;0.93;;
36573;SDS011;22578;42.668;23.232;2023-08-06T03:37:12;1.23;;;1.15;;
36573;SDS011;22578;42.668;23.232;2023-08-06T03:40:34;0.90;;;0.90;;
36573;SDS011;22578;42.668;23.232;2023-08-06T03:43:55;1.05;;;1.05;;
36573;SDS011;22578;42.668;23.232;2023-08-06T03:47:15;1.40;;;1.30;;
36573;SDS011;22578;42.668;23.232;2023-08-06T03:50:36;1.02;;;1.02;;
36573;SDS011;22578;42.668;23.232;2023-08-06T03:53:56;1.27;;;1.27;;
36573;SDS011;22578;42.668;23.232;2023-08-06T03:57:17;1.05;;;0.90;;
36573;SDS011;22578;42.668;23.232;2023-08-06T04:00:37;1.85;;;1.13;;
36573;SDS011;22578;42.668;23.232;2023-08-06T04:03:58;1.00;;;1.00;;
36573;SDS011;22578;42.668;23.232;2023-08-06T04:07:18;1.25;;;1.17;;
36573;SDS011;22578;42.668;23.232;2023-08-06T04:10:38;1.65;;;1.23;;
36573;SDS011;22578;42.668;23.232;2023-08-06T04:13:59;1.35;;;1.25;;
36573;SDS011;22578;42.668;23.232;2023-08-06T04:17:20;2.22;;;1.98;;
36573;SDS011;22578;42.668;23.232;2023-08-06T04:20:44;3.83;;;2.53;;
36573;SDS011;22578;42.668;23.232;2023-08-06T04:24:05;1.83;;;1.65;;
36573;SDS011;22578;42.668;23.232;2023-08-06T04:27:26;3.33;;;2.05;;
36573;SDS011;22578;42.668;23.232;2023-08-06T04:30:46;1.65;;;1.55;;
36573;SDS011;22578;42.668;23.232;2023-08-06T04:34:07;2.05;;;1.67;;
36573;SDS011;22578;42.668;23.232;2023-08-06T04:37:29;1.65;;;1.55;;
36573;SDS011;22578;42.668;23.232;2023-08-06T04:40:49;2.20;;;1.67;;
36573;SDS011;22578;42.668;23.232;2023-08-06T04:44:09;2.67;;;1.95;;
36573;SDS011;22578;42.668;23.232;2023-08-06T04:47:30;2.08;;;1.88;;
36573;SDS011;22578;42.668;23.232;2023-08-06T04:50:50;2.95;;;1.85;;
36573;SDS011;22578;42.668;23.232;2023-08-06T04:54:11;1.50;;;1.40;;
36573;SDS011;22578;42.668;23.232;2023-08-06T04:57:31;2.35;;;1.83;;
36573;SDS011;22578;42.668;23.232;2023-08-06T05:00:52;1.52;;;1.40;;
36573;SDS011;22578;42.668;23.232;2023-08-06T05:04:13;1.63;;;1.52;;
36573;SDS011;22578;42.668;23.232;2023-08-06T05:07:34;2.08;;;1.38;;
36573;SDS011;22578;42.668;23.232;2023-08-06T05:10:54;1.75;;;1.65;;
36573;SDS011;22578;42.668;23.232;2023-08-06T05:14:14;1.73;;;1.63;;
36573;SDS011;22578;42.668;23.232;2023-08-06T05:17:35;1.80;;;1.70;;
36573;SDS011;22578;42.668;23.232;2023-08-06T05:20:55;1.77;;;1.63;;
36573;SDS011;22578;42.668;23.232;2023-08-06T05:24:16;1.67;;;1.50;;
36573;SDS011;22578;42.668;23.232;2023-08-06T05:27:36;2.13;;;1.42;;
36573;SDS011;22578;42.668;23.232;2023-08-06T05:30:57;2.70;;;2.17;;
36573;SDS011;22578;42.668;23.232;2023-08-06T05:34:17;2.85;;;1.73;;
36573;SDS011;22578;42.668;23.232;2023-08-06T05:37:37;3.05;;;2.15;;
36573;SDS011;22578;42.668;23.232;2023-08-06T05:40:58;1.40;;;1.30;;
36573;SDS011;22578;42.668;23.232;2023-08-06T05:44:18;3.08;;;1.85;;
36573;SDS011;22578;42.668;23.232;2023-08-06T05:47:39;3.63;;;1.75;;
36573;SDS011;22578;42.668;23.232;2023-08-06T05:50:59;2.72;;;2.10;;
36573;SDS011;22578;42.668;23.232;2023-08-06T05:54:19;2.92;;;2.17;;
36573;SDS011;22578;42.668;23.232;2023-08-06T05:57:40;4.22;;;1.80;;
36573;SDS011;22578;42.668;23.232;2023-08-06T06:01:00;2.63;;;2.03;;
36573;SDS011;22578;42.668;23.232;2023-08-06T06:04:21;1.80;;;1.70;;
36573;SDS011;22578;42.668;23.232;2023-08-06T06:07:41;2.13;;;1.67;;
36573;SDS011;22578;42.668;23.232;2023-08-06T06:11:01;1.25;;;1.15;;
36573;SDS011;22578;42.668;23.232;2023-08-06T06:14:22;1.70;;;1.60;;
36573;SDS011;22578;42.668;23.232;2023-08-06T06:17:42;2.38;;;1.38;;
36573;SDS011;22578;42.668;23.232;2023-08-06T06:21:03;1.60;;;1.40;;
36573;SDS011;22578;42.668;23.232;2023-08-06T06:24:23;1.92;;;1.75;;
36573;SDS011;22578;42.668;23.232;2023-08-06T06:27:44;2.38;;;2.10;;
36573;SDS011;22578;42.668;23.232;2023-08-06T06:31:04;2.55;;;2.03;;
36573;SDS011;22578;42.668;23.232;2023-08-06T06:34:25;2.45;;;1.73;;
36573;SDS011;22578;42.668;23.232;2023-08-06T06:37:45;1.30;;;1.23;;
36573;SDS011;22578;42.668;23.232;2023-08-06T06:41:06;1.83;;;1.73;;
36573;SDS011;22578;42.668;23.232;2023-08-06T06:44:27;2.25;;;1.98;;
36573;SDS011;22578;42.668;23.232;2023-08-06T06:47:47;1.95;;;1.75;;
36573;SDS011;22578;42.668;23.232;2023-08-06T06:51:08;1.75;;;1.65;;
36573;SDS011;22578;42.668;23.232;2023-08-06T06:54:28;1.98;;;1.70;;
36573;SDS011;22578;42.668;23.232;2023-08-06T06:57:48;1.33;;;1.20;;
36573;SDS011;22578;42.668;23.232;2023-08-06T07:01:09;1.63;;;1.50;;
36573;SDS011;22578;42.668;23.232;2023-08-06T07:04:31;2.00;;;1.80;;
36573;SDS011;22578;42.668;23.232;2023-08-06T07:07:52;0.98;;;0.98;;
36573;SDS011;22578;42.668;23.232;2023-08-06T07:11:12;1.52;;;1.42;;
36573;SDS011;22578;42.668;23.232;2023-08-06T07:14:32;1.42;;;1.33;;
36573;SDS011;22578;42.668;23.232;2023-08-06T07:17:53;2.75;;;1.75;;
36573;SDS011;22578;42.668;23.232;2023-08-06T07:21:13;0.90;;;0.90;;
36573;SDS011;22578;42.668;23.232;2023-08-06T07:24:34;1.10;;;1.10;;
36573;SDS011;22578;42.668;23.232;2023-08-06T07:27:54;1.23;;;1.10;;
36573;SDS011;22578;42.668;23.232;2023-08-06T07:31:16;1.98;;;1.80;;
36573;SDS011;22578;42.668;23.232;2023-08-06T07:34:37;0.90;;;0.90;;
36573;SDS011;22578;42.668;23.232;2023-08-06T07:37:57;1.10;;;1.00;;
36573;SDS011;22578;42.668;23.232;2023-08-06T07:41:17;2.55;;;1.27;;
36573;SDS011;22578;42.668;23.232;2023-08-06T07:44:38;1.27;;;1.17;;
36573;SDS011;22578;42.668;23.232;2023-08-06T07:47:59;1.02;;;1.00;;
36573;SDS011;22578;42.668;23.232;2023-08-06T07:51:19;1.35;;;1.25;;
36573;SDS011;22578;42.668;23.232;2023-08-06T07:54:39;2.30;;;1.65;;
36573;SDS011;22578;42.668;23.232;2023-08-06T07:58:00;2.20;;;1.10;;
36573;SDS011;22578;42.668;23.232;2023-08-06T08:01:20;1.13;;;1.05;;
36573;SDS011;22578;42.668;23.232;2023-08-06T08:04:41;1.00;;;1.00;;
36573;SDS011;22578;42.668;23.232;2023-08-06T08:08:01;1.75;;;1.65;;
36573;SDS011;22578;42.668;23.232;2023-08-06T08:11:22;1.17;;;1.10;;
36573;SDS011;22578;42.668;23.232;2023-08-06T08:14:42;1.30;;;1.20;;
36573;SDS011;22578;42.668;23.232;2023-08-06T08:18:05;1.30;;;1.20;;
36573;SDS011;22578;42.668;23.232;2023-08-06T08:21:25;1.30;;;1.20;;
36573;SDS011;22578;42.668;23.232;2023-08-06T08:24:46;1.00;;;1.00;;
36573;SDS011;22578;42.668;23.232;2023-08-06T08:28:06;1.40;;;1.30;;
36573;SDS011;22578;42.668;23.232;2023-08-06T08:31:27;1.35;;;1.25;;
36573;SDS011;22578;42.668;23.232;2023-08-06T08:34:48;1.35;;;1.25;;
36573;SDS011;22578;42.668;23.232;2023-08-06T08:38:09;1.60;;;1.25;;
36573;SDS011;22578;42.668;23.232;2023-08-06T08:41:29;1.35;;;1.25;;
36573;SDS011;22578;42.668;23.232;2023-08-06T08:44:50;1.38;;;1.27;;
36573;SDS011;22578;42.668;23.232;2023-08-06T08:48:11;1.20;;;1.10;;
36573;SDS011;22578;42.668;23.232;2023-08-06T08:51:34;1.40;;;1.10;;
36573;SDS011;22578;42.668;23.232;2023-08-06T08:54:57;1.95;;;1.35;;
36573;SDS011;22578;42.668;23.232;2023-08-06T08:58:19;0.85;;;0.85;;
36573;SDS011;22578;42.668;23.232;2023-08-06T09:01:39;1.35;;;1.08;;
36573;SDS011;22578;42.668;23.232;2023-08-06T09:05:01;1.55;;;1.45;;
36573;SDS011;22578;42.668;23.232;2023-08-06T09:08:24;1.27;;;1.17;;
36573;SDS011;22578;42.668;23.232;2023-08-06T09:11:48;1.25;;;1.15;;
36573;SDS011;22578;42.668;23.232;2023-08-06T09:15:09;1.35;;;1.25;;
36573;SDS011;22578;42.668;23.232;2023-08-06T09:18:30;0.82;;;0.82;;
36573;SDS011;22578;42.668;23.232;2023-08-06T09:21:51;1.35;;;1.25;;
36573;SDS011;22578;42.668;23.232;2023-08-06T09:25:11;1.27;;;1.00;;
36573;SDS011;22578;42.668;23.232;2023-08-06T09:28:37;1.08;;;1.05;;
36573;SDS011;22578;42.668;23.232;2023-08-06T09:32:03;0.90;;;0.90;;
36573;SDS011;22578;42.668;23.232;2023-08-06T09:35:23;1.10;;;1.00;;
36573;SDS011;22578;42.668;23.232;2023-08-06T09:38:44;1.52;;;1.38;;
36573;SDS011;22578;42.668;23.232;2023-08-06T09:42:04;1.27;;;1.17;;
36573;SDS011;22578;42.668;23.232;2023-08-06T09:45:35;0.77;;;0.77;;
36573;SDS011;22578;42.668;23.232;2023-08-06T09:48:56;0.73;;;0.73;;
36573;SDS011;22578;42.668;23.232;2023-08-06T09:52:16;1.10;;;1.00;;
36573;SDS011;22578;42.668;23.232;2023-08-06T09:55:37;1.85;;;1.58;;
36573;SDS011;22578;42.668;23.232;2023-08-06T09:58:58;1.27;;;1.17;;
36573;SDS011;22578;42.668;23.232;2023-08-06T10:02:18;1.48;;;1.20;;
36573;SDS011;22578;42.668;23.232;2023-08-06T10:05:40;1.30;;;1.20;;
36573;SDS011;22578;42.668;23.232;2023-08-06T10:09:01;1.35;;;1.25;;
36573;SDS011;22578;42.668;23.232;2023-08-06T10:12:23;1.02;;;1.02;;
36573;SDS011;22578;42.668;23.232;2023-08-06T10:15:44;0.90;;;0.90;;
36573;SDS011;22578;42.668;23.232;2023-08-06T10:19:05;0.95;;;0.95;;
36573;SDS011;22578;42.668;23.232;2023-08-06T10:22:27;1.20;;;1.10;;
36573;SDS011;22578;42.668;23.232;2023-08-06T10:25:53;0.93;;;0.90;;
36573;SDS011;22578;42.668;23.232;2023-08-06T10:36:20;2.33;;;1.48;;
36573;SDS011;22578;42.668;23.232;2023-08-06T10:39:47;1.27;;;1.15;;
36573;SDS011;22578;42.668;23.232;2023-08-06T10:43:11;1.10;;;1.00;;
36573;SDS011;22578;42.668;23.232;2023-08-06T10:46:47;1.08;;;0.98;;
36573;SDS011;22578;42.668;23.232;2023-08-06T10:50:13;0.98;;;0.95;;
36573;SDS011;22578;42.668;23.232;2023-08-06T10:56:57;1.02;;;1.02;;
36573;SDS011;22578;42.668;23.232;2023-08-06T11:00:17;1.30;;;1.20;;
36573;SDS011;22578;42.668;23.232;2023-08-06T11:03:38;1.33;;;1.17;;
36573;SDS011;22578;42.668;23.232;2023-08-06T11:06:59;1.27;;;1.17;;
36573;SDS011;22578;42.668;23.232;2023-08-06T11:10:19;1.50;;;1.05;;
36573;SDS011;22578;42.668;23.232;2023-08-06T11:13:40;0.93;;;0.93;;
36573;SDS011;22578;42.668;23.232;2023-08-06T11:17:01;4.47;;;1.58;;
36573;SDS011;22578;42.668;23.232;2023-08-06T11:20:22;1.15;;;1.13;;
36573;SDS011;22578;42.668;23.232;2023-08-06T11:23:43;1.23;;;1.17;;
36573;SDS011;22578;42.668;23.232;2023-08-06T11:27:10;1.45;;;1.35;;
36573;SDS011;22578;42.668;23.232;2023-08-06T11:30:34;1.40;;;1.30;;
36573;SDS011;22578;42.668;23.232;2023-08-06T11:33:54;6.88;;;1.60;;
36573;SDS011;22578;42.668;23.232;2023-08-06T11:37:15;1.75;;;1.35;;
36573;SDS011;22578;42.668;23.232;2023-08-06T11:40:35;1.40;;;1.30;;
36573;SDS011;22578;42.668;23.232;2023-08-06T11:43:56;2.15;;;1.48;;
36573;SDS011;22578;42.668;23.232;2023-08-06T11:47:17;1.75;;;1.27;;
36573;SDS011;22578;42.668;23.232;2023-08-06T11:50:38;1.27;;;1.10;;
36573;SDS011;22578;42.668;23.232;2023-08-06T11:53:58;1.15;;;1.10;;
36573;SDS011;22578;42.668;23.232;2023-08-06T11:57:19;1.08;;;1.02;;
36573;SDS011;22578;42.668;23.232;2023-08-06T12:00:42;1.25;;;1.15;;
36573;SDS011;22578;42.668;23.232;2023-08-06T12:04:04;2.67;;;1.52;;
36573;SDS011;22578;42.668;23.232;2023-08-06T12:07:28;1.25;;;1.15;;
36573;SDS011;22578;42.668;23.232;2023-08-06T12:10:49;1.75;;;1.20;;
36573;SDS011;22578;42.668;23.232;2023-08-06T12:14:10;1.83;;;1.20;;
36573;SDS011;22578;42.668;23.232;2023-08-06T12:17:31;1.05;;;1.02;;
36573;SDS011;22578;42.668;23.232;2023-08-06T12:20:51;1.63;;;1.40;;
36573;SDS011;22578;42.668;23.232;2023-08-06T12:24:11;1.85;;;1.42;;
36573;SDS011;22578;42.668;23.232;2023-08-06T12:27:32;1.60;;;1.50;;
36573;SDS011;22578;42.668;23.232;2023-08-06T12:30:52;1.35;;;1.25;;
36573;SDS011;22578;42.668;23.232;2023-08-06T12:34:15;1.58;;;1.48;;
36573;SDS011;22578;42.668;23.232;2023-08-06T12:37:35;1.88;;;1.67;;
36573;SDS011;22578;42.668;23.232;2023-08-06T12:40:56;1.63;;;1.48;;
36573;SDS011;22578;42.668;23.232;2023-08-06T12:44:16;1.35;;;1.25;;
36573;SDS011;22578;42.668;23.232;2023-08-06T12:47:37;2.42;;;1.88;;
36573;SDS011;22578;42.668;23.232;2023-08-06T12:50:57;2.42;;;1.73;;
36573;SDS011;22578;42.668;23.232;2023-08-06T12:54:18;1.50;;;1.40;;
36573;SDS011;22578;42.668;23.232;2023-08-06T12:57:39;1.30;;;1.20;;
36573;SDS011;22578;42.668;23.232;2023-08-06T13:01:00;1.60;;;1.50;;
36573;SDS011;22578;42.668;23.232;2023-08-06T13:04:20;2.08;;;1.25;;
36573;SDS011;22578;42.668;23.232;2023-08-06T13:07:41;1.13;;;1.08;;
36573;SDS011;22578;42.668;23.232;2023-08-06T13:11:01;1.20;;;1.13;;
36573;SDS011;22578;42.668;23.232;2023-08-06T13:14:22;1.30;;;1.20;;
36573;SDS011;22578;42.668;23.232;2023-08-06T13:17:42;1.30;;;1.20;;
36573;SDS011;22578;42.668;23.232;2023-08-06T13:21:02;1.30;;;1.20;;
36573;SDS011;22578;42.668;23.232;2023-08-06T13:24:23;1.42;;;1.20;;
36573;SDS011;22578;42.668;23.232;2023-08-06T13:27:43;2.38;;;1.58;;
36573;SDS011;22578;42.668;23.232;2023-08-06T13:31:05;1.88;;;1.55;;
36573;SDS011;22578;42.668;23.232;2023-08-06T13:34:26;2.92;;;1.50;;
36573;SDS011;22578;42.668;23.232;2023-08-06T13:37:46;2.13;;;1.80;;
36573;SDS011;22578;42.668;23.232;2023-08-06T13:41:08;1.73;;;1.30;;
36573;SDS011;22578;42.668;23.232;2023-08-06T13:44:28;5.63;;;1.27;;
36573;SDS011;22578;42.668;23.232;2023-08-06T13:47:49;2.35;;;1.90;;
36573;SDS011;22578;42.668;23.232;2023-08-06T13:51:09;1.63;;;1.50;;
36573;SDS011;22578;42.668;23.232;2023-08-06T13:54:31;1.60;;;1.40;;
36573;SDS011;22578;42.668;23.232;2023-08-06T13:57:51;1.73;;;1.50;;
36573;SDS011;22578;42.668;23.232;2023-08-06T14:01:12;3.25;;;1.95;;
36573;SDS011;22578;42.668;23.232;2023-08-06T14:04:33;1.30;;;1.20;;
36573;SDS011;22578;42.668;23.232;2023-08-06T14:07:53;1.60;;;1.50;;
36573;SDS011;22578;42.668;23.232;2023-08-06T14:11:14;1.30;;;1.20;;
36573;SDS011;22578;42.668;23.232;2023-08-06T14:14:34;1.33;;;1.10;;
36573;SDS011;22578;42.668;23.232;2023-08-06T14:17:55;1.30;;;1.23;;
36573;SDS011;22578;42.668;23.232;2023-08-06T14:21:15;1.13;;;1.02;;
36573;SDS011;22578;42.668;23.232;2023-08-06T14:24:35;1.67;;;1.30;;
36573;SDS011;22578;42.668;23.232;2023-08-06T14:27:56;3.47;;;1.70;;
36573;SDS011;22578;42.668;23.232;2023-08-06T14:31:16;1.00;;;1.00;;
36573;SDS011;22578;42.668;23.232;2023-08-06T14:34:37;1.30;;;1.10;;
36573;SDS011;22578;42.668;23.232;2023-08-06T14:37:57;1.27;;;0.90;;
36573;SDS011;22578;42.668;23.232;2023-08-06T14:41:18;0.98;;;0.95;;
36573;SDS011;22578;42.668;23.232;2023-08-06T14:44:38;0.80;;;0.80;;
36573;SDS011;22578;42.668;23.232;2023-08-06T14:47:59;0.80;;;0.80;;
36573;SDS011;22578;42.668;23.232;2023-08-06T14:51:19;2.75;;;1.20;;
36573;SDS011;22578;42.668;23.232;2023-08-06T14:54:40;0.90;;;0.90;;
36573;SDS011;22578;42.668;23.232;2023-08-06T14:58:00;1.48;;;1.38;;
36573;SDS011;22578;42.668;23.232;2023-08-06T15:01:21;1.10;;;1.00;;
36573;SDS011;22578;42.668;23.232;2023-08-06T15:04:41;1.20;;;1.05;;
36573;SDS011;22578;42.668;23.232;2023-08-06T15:08:02;1.10;;;1.00;;
36573;SDS011;22578;42.668;23.232;2023-08-06T15:11:22;0.73;;;0.73;;
36573;SDS011;22578;42.668;23.232;2023-08-06T15:14:43;1.02;;;1.02;;
36573;SDS011;22578;42.668;23.232;2023-08-06T15:18:03;0.90;;;0.90;;
36573;SDS011;22578;42.668;23.232;2023-08-06T15:21:24;1.10;;;1.00;;
36573;SDS011;22578;42.668;23.232;2023-08-06T15:24:44;1.10;;;1.00;;
36573;SDS011;22578;42.668;23.232;2023-08-06T15:28:06;0.88;;;0.88;;
36573;SDS011;22578;42.668;23.232;2023-08-06T15:31:35;1.13;;;1.08;;
36573;SDS011;22578;42.668;23.232;2023-08-06T15:34:59;1.08;;;1.08;;
36573;SDS011;22578;42.668;23.232;2023-08-06T15:38:19;2.53;;;1.00;;
36573;SDS011;22578;42.668;23.232;2023-08-06T15:41:40;0.93;;;0.93;;
36573;SDS011;22578;42.668;23.232;2023-08-06T15:45:00;0.93;;;0.85;;
36573;SDS011;22578;42.668;23.232;2023-08-06T15:48:23;0.80;;;0.80;;
36573;SDS011;22578;42.668;23.232;2023-08-06T15:51:43;0.73;;;0.73;;
36573;SDS011;22578;42.668;23.232;2023-08-06T15:55:04;0.60;;;0.60;;
36573;SDS011;22578;42.668;23.232;2023-08-06T15:58:25;0.80;;;0.80;;
36573;SDS011;22578;42.668;23.232;2023-08-06T16:01:46;0.88;;;0.88;;
36573;SDS011;22578;42.668;23.232;2023-08-06T16:05:06;0.90;;;0.90;;
36573;SDS011;22578;42.668;23.232;2023-08-06T16:08:27;0.73;;;0.73;;
36573;SDS011;22578;42.668;23.232;2023-08-06T16:11:48;0.80;;;0.80;;
36573;SDS011;22578;42.668;23.232;2023-08-06T16:15:10;0.70;;;0.70;;
36573;SDS011;22578;42.668;23.232;2023-08-06T16:18:31;1.95;;;1.85;;
36573;SDS011;22578;42.668;23.232;2023-08-06T16:21:51;0.80;;;0.80;;
36573;SDS011;22578;42.668;23.232;2023-08-06T16:25:12;0.80;;;0.80;;
36573;SDS011;22578;42.668;23.232;2023-08-06T16:28:38;0.82;;;0.82;;
36573;SDS011;22578;42.668;23.232;2023-08-06T16:32:00;0.90;;;0.90;;
36573;SDS011;22578;42.668;23.232;2023-08-06T16:35:21;1.20;;;1.10;;
36573;SDS011;22578;42.668;23.232;2023-08-06T16:38:42;0.98;;;0.98;;
36573;SDS011;22578;42.668;23.232;2023-08-06T16:42:03;0.90;;;0.90;;
36573;SDS011;22578;42.668;23.232;2023-08-06T16:45:26;0.80;;;0.80;;
36573;SDS011;22578;42.668;23.232;2023-08-06T16:48:46;0.80;;;0.80;;
36573;SDS011;22578;42.668;23.232;2023-08-06T16:52:07;1.10;;;1.10;;
36573;SDS011;22578;42.668;23.232;2023-08-06T16:55:29;2.00;;;1.02;;
36573;SDS011;22578;42.668;23.232;2023-08-06T16:58:51;0.70;;;0.70;;
36573;SDS011;22578;42.668;23.232;2023-08-06T17:02:11;5.03;;;0.90;;
36573;SDS011;22578;42.668;23.232;2023-08-06T17:05:32;0.80;;;0.80;;
36573;SDS011;22578;42.668;23.232;2023-08-06T17:08:52;0.80;;;0.80;;
36573;SDS011;22578;42.668;23.232;2023-08-06T17:12:13;0.70;;;0.70;;
36573;SDS011;22578;42.668;23.232;2023-08-06T17:15:38;1.30;;;1.05;;
36573;SDS011;22578;42.668;23.232;2023-08-06T17:18:58;0.80;;;0.80;;
36573;SDS011;22578;42.668;23.232;2023-08-06T17:22:19;0.90;;;0.90;;
36573;SDS011;22578;42.668;23.232;2023-08-06T17:25:43;0.63;;;0.63;;
36573;SDS011;22578;42.668;23.232;2023-08-06T17:29:04;0.80;;;0.80;;
36573;SDS011;22578;42.668;23.232;2023-08-06T17:32:24;0.70;;;0.70;;
36573;SDS011;22578;42.668;23.232;2023-08-06T17:35:47;0.80;;;0.80;;
36573;SDS011;22578;42.668;23.232;2023-08-06T17:39:09;0.90;;;0.90;;
36573;SDS011;22578;42.668;23.232;2023-08-06T17:42:30;0.90;;;0.90;;
36573;SDS011;22578;42.668;23.232;2023-08-06T17:45:58;2.38;;;1.17;;
36573;SDS011;22578;42.668;23.232;2023-08-06T17:49:22;1.00;;;1.00;;
36573;SDS011;22578;42.668;23.232;2023-08-06T17:52:42;0.80;;;0.80;;
36573;SDS011;22578;42.668;23.232;2023-08-06T17:56:04;0.82;;;0.82;;
36573;SDS011;22578;42.668;23.232;2023-08-06T17:59:24;5.18;;;1.10;;
36573;SDS011;22578;42.668;23.232;2023-08-06T18:02:44;1.02;;;1.00;;
36573;SDS011;22578;42.668;23.232;2023-08-06T18:06:05;0.90;;;0.90;;
36573;SDS011;22578;42.668;23.232;2023-08-06T18:09:26;0.77;;;0.77;;
36573;SDS011;22578;42.668;23.232;2023-08-06T18:12:48;0.80;;;0.80;;
36573;SDS011;22578;42.668;23.232;2023-08-06T18:16:08;0.85;;;0.85;;
36573;SDS011;22578;42.668;23.232;2023-08-06T18:19:31;0.80;;;0.80;;
36573;SDS011;22578;42.668;23.232;2023-08-06T18:22:51;1.23;;;1.23;;
36573;SDS011;22578;42.668;23.232;2023-08-06T18:26:15;1.02;;;0.80;;
36573;SDS011;22578;42.668;23.232;2023-08-06T18:29:35;0.80;;;0.80;;
36573;SDS011;22578;42.668;23.232;2023-08-06T18:32:56;0.90;;;0.90;;
36573;SDS011;22578;42.668;23.232;2023-08-06T18:36:16;0.80;;;0.80;;
36573;SDS011;22578;42.668;23.232;2023-08-06T18:39:37;0.90;;;0.90;;
36573;SDS011;22578;42.668;23.232;2023-08-06T18:42:58;0.85;;;0.85;;
36573;SDS011;22578;42.668;23.232;2023-08-06T18:46:18;0.70;;;0.70;;
36573;SDS011;22578;42.668;23.232;2023-08-06T18:49:39;0.80;;;0.80;;
36573;SDS011;22578;42.668;23.232;2023-08-06T18:52:59;0.70;;;0.70;;
36573;SDS011;22578;42.668;23.232;2023-08-06T18:56:20;0.70;;;0.70;;
36573;SDS011;22578;42.668;23.232;2023-08-06T18:59:40;0.88;;;0.88;;
36573;SDS011;22578;42.668;23.232;2023-08-06T19:03:01;0.80;;;0.80;;
36573;SDS011;22578;42.668;23.232;2023-08-06T19:06:22;0.85;;;0.85;;
36573;SDS011;22578;42.668;23.232;2023-08-06T19:09:43;0.80;;;0.80;;
36573;SDS011;22578;42.668;23.232;2023-08-06T19:13:07;0.70;;;0.70;;
36573;SDS011;22578;42.668;23.232;2023-08-06T19:16:28;0.80;;;0.80;;
36573;SDS011;22578;42.668;23.232;2023-08-06T19:19:49;0.77;;;0.77;;
36573;SDS011;22578;42.668;23.232;2023-08-06T19:23:09;0.90;;;0.90;;
36573;SDS011;22578;42.668;23.232;2023-08-06T19:26:35;0.80;;;0.80;;
36573;SDS011;22578;42.668;23.232;2023-08-06T19:29:55;0.80;;;0.80;;
36573;SDS011;22578;42.668;23.232;2023-08-06T19:33:16;0.88;;;0.88;;
36573;SDS011;22578;42.668;23.232;2023-08-06T19:36:37;0.80;;;0.80;;
36573;SDS011;22578;42.668;23.232;2023-08-06T19:39:57;0.90;;;0.90;;
36573;SDS011;22578;42.668;23.232;2023-08-06T19:43:18;0.70;;;0.70;;
36573;SDS011;22578;42.668;23.232;2023-08-06T19:46:38;0.70;;;0.70;;
36573;SDS011;22578;42.668;23.232;2023-08-06T19:49:59;0.80;;;0.80;;
36573;SDS011;22578;42.668;23.232;2023-08-06T19:53:19;0.80;;;0.80;;
36573;SDS011;22578;42.668;23.232;2023-08-06T19:56:40;0.90;;;0.90;;
36573;SDS011;22578;42.668;23.232;2023-08-06T20:00:01;0.80;;;0.80;;
36573;SDS011;22578;42.668;23.232;2023-08-06T20:03:22;0.90;;;0.90;;
36573;SDS011;22578;42.668;23.232;2023-08-06T20:06:43;0.80;;;0.80;;